Strumenti personali
Tu sei qui: Portale Dati rete

Dati disponibili

Clicca sulla provincia, potrai visualizzare le stazioni presenti nel suo territorio

Belluno, Padova, Rovigo, Treviso, Venezia, Verona, Vicenza

 

 

Provincia di BellunoProvincia di VicenzaProvincia di TrevisoProvincia di VeneziaProvincia di PadovaProvincia di VeronaProvincia di Rovigo

Dipartimento Regionale per la Sicurezza del Territorio

Servizio Centro Meteorologico di Teolo

Stazione Gaiarine
Provincia TREVISO

Valori giornalieri nel periodo 23/02/2014 - 23/04/2014

La tabella è stata elaborata con i dati trasmessi in automatico dalle centraline, dopo la validazione possono subire parziali modifiche.
Data (gg/mm/aa) Temp. aria
a 2m
(°C)
Pioggia
(mm)
Umidità rel.
a 2m
(%)
Radiazione globale
(MJ/m2)
Bagnatura fogliare
(% di tempo)
Temp. suolo media
(°C)
  med     min     max   tot min max tot tot a
0 cm
a
-10 cm
a
-20 cm
a
-30 cm
23/02/14 7.2 0.2 14.3 0.0 27 100 13.901 35 7.6 8.4 8.8 9.1
24/02/14 7.8 0.6 15.4 0.0 30 100 13.637 7 7.9 8.4 8.7 9.0
25/02/14 7.4 0.1 13.7 0.0 44 100 12.878 16 7.6 8.3 8.7 8.9
26/02/14 10.0 6.0 14.6 0.0 51 100 10.725 19 9.5 9.2 9.1 9.1
27/02/14 9.5 5.7 14.3 0.2 59 100 10.104 40 9.9 10.0 9.8 9.6
28/02/14 8.3 5.2 12.4 7.2 46 100 10.242 38 9.5 9.8 9.8 9.7
01/03/14 7.8 6.2 9.4 29.2 74 100 2.247 67 8.4 9.3 9.7 9.7
02/03/14 9.9 7.3 12.6 10.2 62 100 4.236 38 9.2 9.2 9.2 9.3
03/03/14 9.6 6.2 13.2 0.0 50 100 7.770 2 9.8 9.8 9.7 9.6
04/03/14 9.9 6.7 14.1 2.2 45 99 8.046 14 9.7 10.0 9.9 9.8
05/03/14 9.7 3.1 16.5 0.0 33 100 11.786 11 9.6 9.9 9.9 9.8
06/03/14 9.9 2.2 19.7 0.0 23 100 13.744 38 9.4 9.8 9.9 9.8
07/03/14 10.3 2.2 17.8 0.0 32 100 15.338 7 9.9 10.0 10.0 9.9
08/03/14 10.5 4.2 16.8 0.0 36 99 15.163 14 10.3 10.5 10.4 10.2
09/03/14 10.1 2.3 18.4 0.0 25 100 15.759 28 9.8 10.2 10.4 10.3
10/03/14 10.7 4.8 18.0 0.0 26 91 14.911 4 10.0 10.4 10.4 10.4
11/03/14 9.1 2.7 16.1 0.0 30 94 15.131 19 9.6 10.2 10.4 10.4
12/03/14 10.5 0.7 20.3 0.0 20 100 17.139 32 9.8 10.1 10.3 10.3
13/03/14 11.7 2.5 20.0 0.0 23 95 16.286 9 10.4 10.6 10.6 10.5
14/03/14 10.9 2.5 19.8 0.0 32 100 16.079 41 10.7 10.9 10.9 10.7
15/03/14 9.6 4.4 14.4 0.0 60 100 10.255 51 10.7 11.2 11.1 10.9
16/03/14 10.5 3.5 17.0 0.0 51 100 14.999 52 10.9 11.2 11.1 10.9
17/03/14 10.9 4.7 18.2 0.0 52 100 14.698 58 11.8 11.7 11.5 11.2
18/03/14 11.5 4.0 19.1 0.2 49 100 15.093 37 12.3 12.1 11.8 11.5
19/03/14 13.7 10.2 19.4 0.0 51 100 13.889 18 14.1 13.5 12.7 12.0
20/03/14 13.6 5.9 21.2 0.0 34 100 16.625 34 13.7 13.5 13.1 12.5
21/03/14 12.5 5.1 19.4 0.0 35 100 16.204 46 13.0 13.1 13.0 12.6
22/03/14 12.8 9.4 16.9 12.8 53 100 9.150 45 13.4 13.3 13.0 12.6
23/03/14 11.4 8.2 14.6 29.6 74 100 3.904 68 12.5 13.0 12.9 12.6
24/03/14 8.7 5.4 11.7 3.4 48 100 9.633 28 11.2 12.0 12.2 12.2
25/03/14 8.4 5.1 13.0 0.6 36 100 14.742 24 11.0 11.5 11.7 11.8
26/03/14 9.9 3.4 14.6 0.0 33 94 18.181 0 11.3 11.5 11.6 11.7
27/03/14 13.0 8.8 18.1 0.0 29 70 13.380 0 12.5 12.1 12.0 11.8
28/03/14 13.1 5.7 20.5 0.0 25 92 18.401 0 13.6 12.9 12.5 12.1
29/03/14 13.2 3.7 21.4 0.0 24 100 19.819 16 13.9 13.3 12.9 12.5
30/03/14 13.2 4.7 21.7 0.0 27 100 19.769 27 14.4 13.8 13.4 12.9
31/03/14 13.4 5.1 21.0 0.0 36 100 19.198 33 14.8 14.1 13.7 13.2
01/04/14 14.4 7.5 21.2 0.0 40 100 16.255 33 15.1 14.6 14.2 13.5
02/04/14 15.0 9.0 20.6 0.0 37 100 17.077 32 16.4 15.4 14.7 14.0
03/04/14 13.1 8.9 16.4 0.0 66 100 7.487 30 14.3 14.8 14.7 14.2
04/04/14 14.9 10.0 19.4 0.0 39 100 12.031 10 14.6 14.4 14.2 13.9
05/04/14 15.6 11.5 18.2 1.4 49 99 7.261 26 15.0 14.9 14.5 14.0
06/04/14 16.2 8.0 22.7 0.0 38 100 17.095 24 16.2 15.3 14.7 14.2
07/04/14 16.9 8.3 24.3 0.0 34 100 20.736 20 17.2 16.2 15.5 14.7
08/04/14 16.4 9.4 23.1 0.2 36 100 15.815 19 16.9 16.4 15.8 15.1
09/04/14 14.1 8.4 19.1 0.2 41 100 14.805 27 15.1 15.6 15.6 15.2
10/04/14 13.9 7.5 20.6 0.0 30 100 21.959 11 16.1 15.5 15.2 14.8
11/04/14 13.5 10.6 15.7 0.0 53 94 9.069 0 15.4 15.5 15.3 15.0
12/04/14 14.0 11.0 17.5 0.0 45 92 7.224 0 15.3 15.4 15.2 14.8
13/04/14 13.9 8.0 19.3 0.4 44 100 13.029 23 15.6 15.5 15.1 14.8
14/04/14 13.0 5.2 19.1 0.0 48 100 12.746 35 14.6 14.8 14.9 14.6
15/04/14 13.0 6.0 18.4 0.0 24 100 19.192 14 14.7 14.8 14.7 14.5
16/04/14 12.3 2.8 19.2 0.0 14 93 23.265 1 14.1 14.3 14.4 14.3
17/04/14 12.1 1.6 20.9 0.0 12 72 24.708 0 14.1 14.2 14.2 14.1
18/04/14 12.5 2.3 19.9 0.4 21 90 17.729 5 14.4 14.3 14.3 14.1
19/04/14 12.7 10.0 19.0 9.2 45 99 7.305 63 14.3 14.5 14.4 14.2
20/04/14 11.9 10.0 14.6 3.8 77 100 5.880 20 13.7 14.2 14.3 14.1
21/04/14 13.5 10.8 16.8 2.2 69 100 6.031 43 14.2 14.2 14.1 13.9
22/04/14 14.6 6.9 21.5 0.2 48 100 21.489 41 15.8 15.1 14.5 14.1
23/04/14 16.6 7.9 25.0 0.0 34 100 20.899 32 17.1 16.2 15.4 14.7
Se la casella è vuota il sensore non è attivo.
Se la casella contiene ">>" il valore non è disponibile.
Si segnala che con precipitazione nevosa il pluviometro potrebbe non rilevare o sottostimare il fenomeno.

Oltre alla gestione operativa delle stazioni, che comprende le operazioni di acquisizione, validazione e archiviazione dati, tale settore si occupa della predisposizione di una serie di prodotti e servizi, finalizzati all'utenza esterna, rappresentati dai dati e servizi di tipo standard il cui costo è gia quantificato (listino prodotti tariffati) o prodotti e servizi particolari, legati a specifiche esigenze dell'utenza, il cui prezzo viene determinato di volta in volta al momento della richiesta dati.

Azioni sul documento

ultima modifica 01/07/2011 15:07